sensor_id;sensor_type;location;lat;lon;timestamp;P1;durP1;ratioP1;P2;durP2;ratioP2
70543;SDS011;58097;48.364;-1.224;2024-02-16T00:00:02;18.13;;;3.53;;
70543;SDS011;58097;48.364;-1.224;2024-02-16T00:02:28;21.98;;;3.45;;
70543;SDS011;58097;48.364;-1.224;2024-02-16T00:04:53;21.73;;;4.05;;
70543;SDS011;58097;48.364;-1.224;2024-02-16T00:07:20;22.10;;;3.88;;
70543;SDS011;58097;48.364;-1.224;2024-02-16T00:09:45;18.65;;;4.03;;
70543;SDS011;58097;48.364;-1.224;2024-02-16T00:12:12;16.70;;;4.03;;
70543;SDS011;58097;48.364;-1.224;2024-02-16T00:14:37;27.27;;;4.10;;
70543;SDS011;58097;48.364;-1.224;2024-02-16T00:17:03;16.70;;;3.92;;
70543;SDS011;58097;48.364;-1.224;2024-02-16T00:19:29;19.05;;;3.75;;
70543;SDS011;58097;48.364;-1.224;2024-02-16T00:21:55;19.92;;;4.03;;
70543;SDS011;58097;48.364;-1.224;2024-02-16T00:24:21;19.38;;;4.85;;
70543;SDS011;58097;48.364;-1.224;2024-02-16T00:26:46;25.27;;;5.05;;
70543;SDS011;58097;48.364;-1.224;2024-02-16T00:29:11;25.60;;;5.72;;
70543;SDS011;58097;48.364;-1.224;2024-02-16T00:31:37;26.60;;;4.50;;
70543;SDS011;58097;48.364;-1.224;2024-02-16T00:34:03;25.38;;;4.55;;
70543;SDS011;58097;48.364;-1.224;2024-02-16T00:36:28;25.45;;;4.32;;
70543;SDS011;58097;48.364;-1.224;2024-02-16T00:38:55;20.92;;;4.32;;
70543;SDS011;58097;48.364;-1.224;2024-02-16T00:41:21;27.00;;;4.05;;
70543;SDS011;58097;48.364;-1.224;2024-02-16T00:43:48;20.20;;;4.00;;
70543;SDS011;58097;48.364;-1.224;2024-02-16T00:46:14;31.13;;;4.45;;
70543;SDS011;58097;48.364;-1.224;2024-02-16T00:48:39;19.67;;;3.92;;
70543;SDS011;58097;48.364;-1.224;2024-02-16T00:51:05;22.85;;;4.78;;
70543;SDS011;58097;48.364;-1.224;2024-02-16T00:53:30;20.25;;;3.85;;
70543;SDS011;58097;48.364;-1.224;2024-02-16T00:55:55;27.02;;;4.25;;
70543;SDS011;58097;48.364;-1.224;2024-02-16T00:58:21;29.13;;;5.00;;
70543;SDS011;58097;48.364;-1.224;2024-02-16T01:00:46;31.88;;;4.75;;
70543;SDS011;58097;48.364;-1.224;2024-02-16T01:03:11;20.67;;;4.28;;
70543;SDS011;58097;48.364;-1.224;2024-02-16T01:05:38;30.33;;;4.07;;
70543;SDS011;58097;48.364;-1.224;2024-02-16T01:08:05;28.65;;;4.82;;
70543;SDS011;58097;48.364;-1.224;2024-02-16T01:10:30;17.33;;;3.78;;
70543;SDS011;58097;48.364;-1.224;2024-02-16T01:12:56;28.20;;;4.72;;
70543;SDS011;58097;48.364;-1.224;2024-02-16T01:15:21;22.92;;;4.75;;
70543;SDS011;58097;48.364;-1.224;2024-02-16T01:17:46;22.23;;;4.07;;
70543;SDS011;58097;48.364;-1.224;2024-02-16T01:20:12;25.15;;;4.78;;
70543;SDS011;58097;48.364;-1.224;2024-02-16T01:22:37;20.48;;;4.38;;
70543;SDS011;58097;48.364;-1.224;2024-02-16T01:25:04;34.65;;;4.78;;
70543;SDS011;58097;48.364;-1.224;2024-02-16T01:27:30;25.92;;;4.03;;
70543;SDS011;58097;48.364;-1.224;2024-02-16T01:29:56;25.25;;;3.92;;
70543;SDS011;58097;48.364;-1.224;2024-02-16T01:32:22;21.58;;;3.88;;
70543;SDS011;58097;48.364;-1.224;2024-02-16T01:34:47;21.85;;;3.95;;
70543;SDS011;58097;48.364;-1.224;2024-02-16T01:37:14;22.95;;;4.43;;
70543;SDS011;58097;48.364;-1.224;2024-02-16T01:39:40;15.10;;;4.30;;
70543;SDS011;58097;48.364;-1.224;2024-02-16T01:42:05;26.52;;;4.72;;
70543;SDS011;58097;48.364;-1.224;2024-02-16T01:44:31;30.35;;;4.03;;
70543;SDS011;58097;48.364;-1.224;2024-02-16T01:46:56;32.08;;;4.82;;
70543;SDS011;58097;48.364;-1.224;2024-02-16T01:49:22;18.38;;;3.97;;
70543;SDS011;58097;48.364;-1.224;2024-02-16T01:51:47;15.77;;;3.47;;
70543;SDS011;58097;48.364;-1.224;2024-02-16T01:54:13;29.27;;;4.53;;
70543;SDS011;58097;48.364;-1.224;2024-02-16T01:56:42;27.60;;;4.97;;
70543;SDS011;58097;48.364;-1.224;2024-02-16T01:59:09;28.48;;;3.65;;
70543;SDS011;58097;48.364;-1.224;2024-02-16T02:01:34;31.20;;;4.55;;
70543;SDS011;58097;48.364;-1.224;2024-02-16T02:04:00;22.13;;;4.22;;
70543;SDS011;58097;48.364;-1.224;2024-02-16T02:06:25;24.98;;;4.65;;
70543;SDS011;58097;48.364;-1.224;2024-02-16T02:08:51;18.52;;;4.03;;
70543;SDS011;58097;48.364;-1.224;2024-02-16T02:11:16;25.77;;;4.78;;
70543;SDS011;58097;48.364;-1.224;2024-02-16T02:13:42;22.88;;;4.25;;
70543;SDS011;58097;48.364;-1.224;2024-02-16T02:16:07;32.17;;;5.10;;
70543;SDS011;58097;48.364;-1.224;2024-02-16T02:18:34;33.40;;;5.03;;
70543;SDS011;58097;48.364;-1.224;2024-02-16T02:21:00;24.00;;;4.95;;
70543;SDS011;58097;48.364;-1.224;2024-02-16T02:23:25;29.88;;;4.53;;
70543;SDS011;58097;48.364;-1.224;2024-02-16T02:25:50;27.92;;;4.43;;
70543;SDS011;58097;48.364;-1.224;2024-02-16T02:28:16;27.70;;;4.35;;
70543;SDS011;58097;48.364;-1.224;2024-02-16T02:30:41;32.40;;;5.10;;
70543;SDS011;58097;48.364;-1.224;2024-02-16T02:33:10;28.50;;;5.10;;
70543;SDS011;58097;48.364;-1.224;2024-02-16T02:35:37;24.70;;;4.72;;
70543;SDS011;58097;48.364;-1.224;2024-02-16T02:38:03;28.38;;;4.60;;
70543;SDS011;58097;48.364;-1.224;2024-02-16T02:40:29;18.73;;;3.97;;
70543;SDS011;58097;48.364;-1.224;2024-02-16T02:42:55;27.95;;;4.57;;
70543;SDS011;58097;48.364;-1.224;2024-02-16T02:45:20;29.42;;;4.72;;
70543;SDS011;58097;48.364;-1.224;2024-02-16T02:47:45;28.00;;;4.80;;
70543;SDS011;58097;48.364;-1.224;2024-02-16T02:50:11;26.30;;;4.95;;
70543;SDS011;58097;48.364;-1.224;2024-02-16T02:52:37;18.20;;;3.95;;
70543;SDS011;58097;48.364;-1.224;2024-02-16T02:55:03;25.67;;;4.88;;
70543;SDS011;58097;48.364;-1.224;2024-02-16T02:57:28;35.65;;;5.10;;
70543;SDS011;58097;48.364;-1.224;2024-02-16T03:00:00;25.20;;;5.15;;
70543;SDS011;58097;48.364;-1.224;2024-02-16T03:02:29;26.63;;;4.93;;
70543;SDS011;58097;48.364;-1.224;2024-02-16T03:04:54;38.55;;;5.55;;
70543;SDS011;58097;48.364;-1.224;2024-02-16T03:07:19;23.08;;;4.72;;
70543;SDS011;58097;48.364;-1.224;2024-02-16T03:09:44;17.63;;;4.70;;
70543;SDS011;58097;48.364;-1.224;2024-02-16T03:12:11;23.52;;;4.53;;
70543;SDS011;58097;48.364;-1.224;2024-02-16T03:14:36;14.35;;;4.63;;
70543;SDS011;58097;48.364;-1.224;2024-02-16T03:17:02;26.27;;;5.00;;
70543;SDS011;58097;48.364;-1.224;2024-02-16T03:19:28;23.95;;;4.82;;
70543;SDS011;58097;48.364;-1.224;2024-02-16T03:21:54;20.70;;;5.22;;
70543;SDS011;58097;48.364;-1.224;2024-02-16T03:24:19;13.35;;;3.90;;
70543;SDS011;58097;48.364;-1.224;2024-02-16T03:26:45;12.93;;;4.07;;
70543;SDS011;58097;48.364;-1.224;2024-02-16T03:29:10;6.70;;;2.72;;
70543;SDS011;58097;48.364;-1.224;2024-02-16T03:31:35;9.38;;;2.97;;
70543;SDS011;58097;48.364;-1.224;2024-02-16T03:34:01;4.10;;;2.20;;
70543;SDS011;58097;48.364;-1.224;2024-02-16T03:36:26;4.78;;;2.10;;
70543;SDS011;58097;48.364;-1.224;2024-02-16T03:38:52;4.13;;;1.60;;
70543;SDS011;58097;48.364;-1.224;2024-02-16T03:41:18;3.15;;;1.65;;
70543;SDS011;58097;48.364;-1.224;2024-02-16T03:43:44;1.95;;;1.10;;
70543;SDS011;58097;48.364;-1.224;2024-02-16T03:46:10;1.25;;;1.15;;
70543;SDS011;58097;48.364;-1.224;2024-02-16T03:48:35;7.25;;;1.50;;
70543;SDS011;58097;48.364;-1.224;2024-02-16T03:51:01;2.50;;;1.45;;
70543;SDS011;58097;48.364;-1.224;2024-02-16T03:53:28;2.08;;;1.30;;
70543;SDS011;58097;48.364;-1.224;2024-02-16T03:55:53;1.67;;;1.13;;
70543;SDS011;58097;48.364;-1.224;2024-02-16T03:58:19;1.75;;;1.00;;
70543;SDS011;58097;48.364;-1.224;2024-02-16T04:00:44;1.88;;;0.80;;
70543;SDS011;58097;48.364;-1.224;2024-02-16T04:03:10;2.25;;;1.20;;
70543;SDS011;58097;48.364;-1.224;2024-02-16T04:05:35;2.20;;;0.77;;
70543;SDS011;58097;48.364;-1.224;2024-02-16T04:08:03;2.42;;;0.68;;
70543;SDS011;58097;48.364;-1.224;2024-02-16T04:10:29;3.65;;;0.90;;
70543;SDS011;58097;48.364;-1.224;2024-02-16T04:12:55;2.80;;;0.95;;
70543;SDS011;58097;48.364;-1.224;2024-02-16T04:15:20;8.18;;;1.40;;
70543;SDS011;58097;48.364;-1.224;2024-02-16T04:17:45;5.28;;;0.88;;
70543;SDS011;58097;48.364;-1.224;2024-02-16T04:20:11;7.53;;;1.25;;
70543;SDS011;58097;48.364;-1.224;2024-02-16T04:22:36;2.45;;;1.05;;
70543;SDS011;58097;48.364;-1.224;2024-02-16T04:25:03;2.42;;;1.23;;
70543;SDS011;58097;48.364;-1.224;2024-02-16T04:27:29;3.00;;;1.20;;
70543;SDS011;58097;48.364;-1.224;2024-02-16T04:29:55;4.88;;;1.42;;
70543;SDS011;58097;48.364;-1.224;2024-02-16T04:32:20;4.70;;;1.50;;
70543;SDS011;58097;48.364;-1.224;2024-02-16T04:34:46;5.55;;;1.35;;
70543;SDS011;58097;48.364;-1.224;2024-02-16T04:37:12;5.72;;;1.77;;
70543;SDS011;58097;48.364;-1.224;2024-02-16T04:39:38;7.57;;;1.95;;
70543;SDS011;58097;48.364;-1.224;2024-02-16T04:42:03;5.85;;;1.67;;
70543;SDS011;58097;48.364;-1.224;2024-02-16T04:44:29;4.22;;;1.90;;
70543;SDS011;58097;48.364;-1.224;2024-02-16T04:46:54;4.10;;;1.77;;
70543;SDS011;58097;48.364;-1.224;2024-02-16T04:49:20;2.92;;;1.33;;
70543;SDS011;58097;48.364;-1.224;2024-02-16T04:51:46;2.53;;;1.80;;
70543;SDS011;58097;48.364;-1.224;2024-02-16T04:54:12;3.00;;;1.55;;
70543;SDS011;58097;48.364;-1.224;2024-02-16T04:56:38;3.13;;;1.42;;
70543;SDS011;58097;48.364;-1.224;2024-02-16T04:59:04;7.03;;;2.00;;
70543;SDS011;58097;48.364;-1.224;2024-02-16T05:01:30;3.42;;;1.50;;
70543;SDS011;58097;48.364;-1.224;2024-02-16T05:03:56;4.03;;;1.50;;
70543;SDS011;58097;48.364;-1.224;2024-02-16T05:06:22;3.40;;;1.35;;
70543;SDS011;58097;48.364;-1.224;2024-02-16T05:08:48;3.67;;;1.45;;
70543;SDS011;58097;48.364;-1.224;2024-02-16T05:11:14;3.72;;;1.52;;
70543;SDS011;58097;48.364;-1.224;2024-02-16T05:13:39;5.18;;;1.42;;
70543;SDS011;58097;48.364;-1.224;2024-02-16T05:16:10;3.20;;;1.27;;
70543;SDS011;58097;48.364;-1.224;2024-02-16T05:18:37;5.25;;;1.42;;
70543;SDS011;58097;48.364;-1.224;2024-02-16T05:21:03;4.63;;;1.42;;
70543;SDS011;58097;48.364;-1.224;2024-02-16T05:23:28;4.32;;;1.60;;
70543;SDS011;58097;48.364;-1.224;2024-02-16T05:25:54;2.10;;;1.50;;
70543;SDS011;58097;48.364;-1.224;2024-02-16T05:28:19;6.72;;;2.03;;
70543;SDS011;58097;48.364;-1.224;2024-02-16T05:30:45;8.75;;;1.90;;
70543;SDS011;58097;48.364;-1.224;2024-02-16T05:33:10;6.47;;;2.47;;
70543;SDS011;58097;48.364;-1.224;2024-02-16T05:35:36;10.55;;;2.92;;
70543;SDS011;58097;48.364;-1.224;2024-02-16T05:38:04;6.88;;;3.25;;
70543;SDS011;58097;48.364;-1.224;2024-02-16T05:40:32;14.98;;;4.00;;
70543;SDS011;58097;48.364;-1.224;2024-02-16T05:43:09;14.68;;;5.00;;
70543;SDS011;58097;48.364;-1.224;2024-02-16T05:45:34;11.32;;;4.60;;
70543;SDS011;58097;48.364;-1.224;2024-02-16T05:48:00;17.30;;;5.60;;
70543;SDS011;58097;48.364;-1.224;2024-02-16T05:50:25;13.13;;;4.90;;
70543;SDS011;58097;48.364;-1.224;2024-02-16T05:52:51;15.00;;;4.90;;
70543;SDS011;58097;48.364;-1.224;2024-02-16T05:55:17;14.68;;;4.70;;
70543;SDS011;58097;48.364;-1.224;2024-02-16T05:57:43;20.50;;;4.40;;
70543;SDS011;58097;48.364;-1.224;2024-02-16T06:00:09;13.27;;;3.88;;
70543;SDS011;58097;48.364;-1.224;2024-02-16T06:02:35;15.48;;;3.40;;
70543;SDS011;58097;48.364;-1.224;2024-02-16T06:05:02;17.70;;;3.72;;
70543;SDS011;58097;48.364;-1.224;2024-02-16T06:07:28;14.73;;;3.35;;
70543;SDS011;58097;48.364;-1.224;2024-02-16T06:09:54;20.10;;;3.30;;
70543;SDS011;58097;48.364;-1.224;2024-02-16T06:12:20;13.95;;;2.88;;
70543;SDS011;58097;48.364;-1.224;2024-02-16T06:14:46;21.90;;;3.85;;
70543;SDS011;58097;48.364;-1.224;2024-02-16T06:17:13;11.73;;;2.83;;
70543;SDS011;58097;48.364;-1.224;2024-02-16T06:19:39;17.70;;;2.92;;
70543;SDS011;58097;48.364;-1.224;2024-02-16T06:22:05;17.75;;;3.22;;
70543;SDS011;58097;48.364;-1.224;2024-02-16T06:24:31;12.95;;;2.40;;
70543;SDS011;58097;48.364;-1.224;2024-02-16T06:26:56;9.30;;;2.53;;
70543;SDS011;58097;48.364;-1.224;2024-02-16T06:29:22;17.13;;;2.50;;
70543;SDS011;58097;48.364;-1.224;2024-02-16T06:31:47;21.70;;;2.45;;
70543;SDS011;58097;48.364;-1.224;2024-02-16T06:34:15;16.88;;;2.33;;
70543;SDS011;58097;48.364;-1.224;2024-02-16T06:36:44;18.45;;;2.50;;
70543;SDS011;58097;48.364;-1.224;2024-02-16T06:39:09;16.63;;;2.50;;
70543;SDS011;58097;48.364;-1.224;2024-02-16T06:41:35;11.00;;;2.17;;
70543;SDS011;58097;48.364;-1.224;2024-02-16T06:44:02;13.98;;;2.05;;
70543;SDS011;58097;48.364;-1.224;2024-02-16T06:46:28;25.88;;;2.40;;
70543;SDS011;58097;48.364;-1.224;2024-02-16T06:48:54;13.40;;;2.30;;
70543;SDS011;58097;48.364;-1.224;2024-02-16T06:51:22;16.42;;;2.70;;
70543;SDS011;58097;48.364;-1.224;2024-02-16T06:53:48;15.57;;;2.45;;
70543;SDS011;58097;48.364;-1.224;2024-02-16T06:56:13;20.55;;;2.78;;
70543;SDS011;58097;48.364;-1.224;2024-02-16T06:58:39;23.70;;;3.00;;
70543;SDS011;58097;48.364;-1.224;2024-02-16T07:01:04;19.58;;;2.65;;
70543;SDS011;58097;48.364;-1.224;2024-02-16T07:03:29;17.13;;;2.78;;
70543;SDS011;58097;48.364;-1.224;2024-02-16T07:05:55;19.50;;;3.38;;
70543;SDS011;58097;48.364;-1.224;2024-02-16T07:08:20;21.55;;;2.97;;
70543;SDS011;58097;48.364;-1.224;2024-02-16T07:10:48;29.38;;;3.45;;
70543;SDS011;58097;48.364;-1.224;2024-02-16T07:13:16;27.58;;;2.67;;
70543;SDS011;58097;48.364;-1.224;2024-02-16T07:15:42;20.00;;;2.80;;
70543;SDS011;58097;48.364;-1.224;2024-02-16T07:18:08;23.48;;;2.75;;
70543;SDS011;58097;48.364;-1.224;2024-02-16T07:20:33;21.90;;;2.25;;
70543;SDS011;58097;48.364;-1.224;2024-02-16T07:22:58;24.15;;;2.78;;
70543;SDS011;58097;48.364;-1.224;2024-02-16T07:25:24;23.27;;;2.53;;
70543;SDS011;58097;48.364;-1.224;2024-02-16T07:27:49;18.70;;;2.70;;
70543;SDS011;58097;48.364;-1.224;2024-02-16T07:30:15;19.42;;;2.40;;
70543;SDS011;58097;48.364;-1.224;2024-02-16T07:32:40;23.40;;;2.53;;
70543;SDS011;58097;48.364;-1.224;2024-02-16T07:35:06;34.15;;;2.92;;
70543;SDS011;58097;48.364;-1.224;2024-02-16T07:37:31;21.52;;;2.45;;
70543;SDS011;58097;48.364;-1.224;2024-02-16T07:39:57;19.15;;;2.08;;
70543;SDS011;58097;48.364;-1.224;2024-02-16T07:42:22;27.70;;;2.80;;
70543;SDS011;58097;48.364;-1.224;2024-02-16T07:44:48;19.73;;;2.88;;
70543;SDS011;58097;48.364;-1.224;2024-02-16T07:47:13;23.55;;;2.80;;
70543;SDS011;58097;48.364;-1.224;2024-02-16T07:49:38;27.25;;;3.60;;
70543;SDS011;58097;48.364;-1.224;2024-02-16T07:52:07;19.55;;;3.00;;
70543;SDS011;58097;48.364;-1.224;2024-02-16T07:54:33;20.08;;;2.35;;
70543;SDS011;58097;48.364;-1.224;2024-02-16T07:56:58;22.02;;;2.17;;
70543;SDS011;58097;48.364;-1.224;2024-02-16T07:59:24;28.02;;;2.60;;
70543;SDS011;58097;48.364;-1.224;2024-02-16T08:01:50;26.35;;;3.00;;
70543;SDS011;58097;48.364;-1.224;2024-02-16T08:04:16;27.98;;;2.65;;
70543;SDS011;58097;48.364;-1.224;2024-02-16T08:06:41;21.33;;;2.63;;
70543;SDS011;58097;48.364;-1.224;2024-02-16T08:09:06;26.65;;;2.72;;
70543;SDS011;58097;48.364;-1.224;2024-02-16T08:11:32;27.02;;;2.40;;
70543;SDS011;58097;48.364;-1.224;2024-02-16T08:13:57;27.10;;;3.22;;
70543;SDS011;58097;48.364;-1.224;2024-02-16T08:16:26;23.20;;;2.60;;
70543;SDS011;58097;48.364;-1.224;2024-02-16T08:18:52;21.52;;;2.63;;
70543;SDS011;58097;48.364;-1.224;2024-02-16T08:21:17;22.00;;;2.47;;
70543;SDS011;58097;48.364;-1.224;2024-02-16T08:23:43;24.20;;;2.88;;
70543;SDS011;58097;48.364;-1.224;2024-02-16T08:26:08;31.70;;;3.47;;
70543;SDS011;58097;48.364;-1.224;2024-02-16T08:28:33;23.98;;;3.10;;
70543;SDS011;58097;48.364;-1.224;2024-02-16T08:30:59;26.45;;;2.15;;
70543;SDS011;58097;48.364;-1.224;2024-02-16T08:33:24;22.42;;;2.53;;
70543;SDS011;58097;48.364;-1.224;2024-02-16T08:35:49;32.88;;;2.63;;
70543;SDS011;58097;48.364;-1.224;2024-02-16T08:38:15;32.65;;;3.35;;
70543;SDS011;58097;48.364;-1.224;2024-02-16T08:40:41;22.00;;;2.58;;
70543;SDS011;58097;48.364;-1.224;2024-02-16T08:43:06;31.92;;;3.25;;
70543;SDS011;58097;48.364;-1.224;2024-02-16T08:45:34;27.27;;;2.40;;
70543;SDS011;58097;48.364;-1.224;2024-02-16T08:48:00;31.67;;;3.53;;
70543;SDS011;58097;48.364;-1.224;2024-02-16T08:50:28;26.45;;;3.10;;
70543;SDS011;58097;48.364;-1.224;2024-02-16T08:52:54;32.05;;;3.42;;
70543;SDS011;58097;48.364;-1.224;2024-02-16T08:55:20;19.13;;;2.80;;
70543;SDS011;58097;48.364;-1.224;2024-02-16T08:57:45;24.55;;;2.55;;
70543;SDS011;58097;48.364;-1.224;2024-02-16T09:00:11;21.90;;;2.65;;
70543;SDS011;58097;48.364;-1.224;2024-02-16T09:02:37;17.60;;;2.22;;
70543;SDS011;58097;48.364;-1.224;2024-02-16T09:05:02;18.77;;;2.08;;
70543;SDS011;58097;48.364;-1.224;2024-02-16T09:07:28;20.17;;;3.05;;
70543;SDS011;58097;48.364;-1.224;2024-02-16T09:09:54;26.17;;;2.38;;
70543;SDS011;58097;48.364;-1.224;2024-02-16T09:12:19;16.50;;;2.05;;
70543;SDS011;58097;48.364;-1.224;2024-02-16T09:14:44;21.80;;;3.15;;
70543;SDS011;58097;48.364;-1.224;2024-02-16T09:17:10;37.83;;;2.85;;
70543;SDS011;58097;48.364;-1.224;2024-02-16T09:19:35;14.85;;;2.53;;
70543;SDS011;58097;48.364;-1.224;2024-02-16T09:22:00;21.17;;;2.67;;
70543;SDS011;58097;48.364;-1.224;2024-02-16T09:24:29;27.55;;;2.92;;
70543;SDS011;58097;48.364;-1.224;2024-02-16T09:26:55;30.35;;;3.15;;
70543;SDS011;58097;48.364;-1.224;2024-02-16T09:29:21;33.60;;;3.35;;
70543;SDS011;58097;48.364;-1.224;2024-02-16T09:31:48;31.00;;;3.10;;
70543;SDS011;58097;48.364;-1.224;2024-02-16T09:34:14;23.67;;;2.80;;
70543;SDS011;58097;48.364;-1.224;2024-02-16T09:36:39;24.63;;;2.83;;
70543;SDS011;58097;48.364;-1.224;2024-02-16T09:39:04;28.27;;;2.92;;
70543;SDS011;58097;48.364;-1.224;2024-02-16T09:41:31;31.13;;;2.78;;
70543;SDS011;58097;48.364;-1.224;2024-02-16T09:44:00;24.13;;;3.28;;
70543;SDS011;58097;48.364;-1.224;2024-02-16T09:46:26;32.45;;;4.22;;
70543;SDS011;58097;48.364;-1.224;2024-02-16T09:48:54;31.75;;;3.67;;
70543;SDS011;58097;48.364;-1.224;2024-02-16T09:51:21;21.50;;;2.95;;
70543;SDS011;58097;48.364;-1.224;2024-02-16T09:53:49;29.38;;;3.47;;
70543;SDS011;58097;48.364;-1.224;2024-02-16T09:56:22;22.38;;;2.63;;
70543;SDS011;58097;48.364;-1.224;2024-02-16T09:58:49;26.50;;;2.88;;
70543;SDS011;58097;48.364;-1.224;2024-02-16T10:01:19;24.58;;;2.47;;
70543;SDS011;58097;48.364;-1.224;2024-02-16T10:03:46;13.65;;;2.38;;
70543;SDS011;58097;48.364;-1.224;2024-02-16T10:06:12;20.70;;;2.72;;
70543;SDS011;58097;48.364;-1.224;2024-02-16T10:08:53;25.55;;;2.30;;
70543;SDS011;58097;48.364;-1.224;2024-02-16T10:11:23;23.33;;;2.67;;
70543;SDS011;58097;48.364;-1.224;2024-02-16T10:16:28;21.15;;;3.15;;
70543;SDS011;58097;48.364;-1.224;2024-02-16T10:18:57;15.98;;;2.75;;
70543;SDS011;58097;48.364;-1.224;2024-02-16T10:21:29;29.35;;;2.78;;
70543;SDS011;58097;48.364;-1.224;2024-02-16T10:24:02;22.23;;;2.72;;
70543;SDS011;58097;48.364;-1.224;2024-02-16T10:26:31;25.50;;;3.63;;
70543;SDS011;58097;48.364;-1.224;2024-02-16T10:28:57;23.45;;;2.92;;
70543;SDS011;58097;48.364;-1.224;2024-02-16T10:31:23;18.23;;;2.33;;
70543;SDS011;58097;48.364;-1.224;2024-02-16T10:34:02;24.88;;;3.33;;
70543;SDS011;58097;48.364;-1.224;2024-02-16T10:36:31;19.38;;;2.65;;
70543;SDS011;58097;48.364;-1.224;2024-02-16T10:38:57;23.70;;;2.85;;
70543;SDS011;58097;48.364;-1.224;2024-02-16T10:41:25;15.73;;;2.63;;
70543;SDS011;58097;48.364;-1.224;2024-02-16T10:43:52;23.70;;;3.03;;
70543;SDS011;58097;48.364;-1.224;2024-02-16T10:46:18;22.85;;;3.05;;
70543;SDS011;58097;48.364;-1.224;2024-02-16T10:48:44;17.55;;;1.95;;
70543;SDS011;58097;48.364;-1.224;2024-02-16T10:51:10;15.52;;;2.10;;
70543;SDS011;58097;48.364;-1.224;2024-02-16T10:53:38;19.83;;;2.10;;
70543;SDS011;58097;48.364;-1.224;2024-02-16T10:56:06;18.38;;;2.63;;
70543;SDS011;58097;48.364;-1.224;2024-02-16T10:58:32;12.00;;;2.38;;
70543;SDS011;58097;48.364;-1.224;2024-02-16T11:01:07;23.60;;;2.17;;
70543;SDS011;58097;48.364;-1.224;2024-02-16T11:03:33;14.48;;;1.70;;
70543;SDS011;58097;48.364;-1.224;2024-02-16T11:05:59;12.82;;;1.92;;
70543;SDS011;58097;48.364;-1.224;2024-02-16T11:08:24;15.77;;;2.17;;
70543;SDS011;58097;48.364;-1.224;2024-02-16T11:10:53;12.23;;;2.30;;
70543;SDS011;58097;48.364;-1.224;2024-02-16T11:13:24;14.25;;;1.98;;
70543;SDS011;58097;48.364;-1.224;2024-02-16T11:15:57;9.85;;;1.55;;
70543;SDS011;58097;48.364;-1.224;2024-02-16T11:18:24;8.50;;;1.27;;
70543;SDS011;58097;48.364;-1.224;2024-02-16T11:20:50;19.30;;;2.35;;
70543;SDS011;58097;48.364;-1.224;2024-02-16T11:23:17;15.57;;;1.65;;
70543;SDS011;58097;48.364;-1.224;2024-02-16T11:25:49;9.88;;;1.52;;
70543;SDS011;58097;48.364;-1.224;2024-02-16T11:28:16;17.35;;;2.20;;
70543;SDS011;58097;48.364;-1.224;2024-02-16T11:30:43;17.75;;;2.05;;
70543;SDS011;58097;48.364;-1.224;2024-02-16T11:33:11;15.98;;;1.90;;
70543;SDS011;58097;48.364;-1.224;2024-02-16T11:35:37;13.23;;;1.85;;
70543;SDS011;58097;48.364;-1.224;2024-02-16T11:38:03;13.43;;;2.45;;
70543;SDS011;58097;48.364;-1.224;2024-02-16T11:40:29;21.45;;;2.30;;
70543;SDS011;58097;48.364;-1.224;2024-02-16T11:42:58;17.85;;;2.17;;
70543;SDS011;58097;48.364;-1.224;2024-02-16T11:45:24;17.02;;;1.63;;
70543;SDS011;58097;48.364;-1.224;2024-02-16T11:47:51;12.23;;;1.83;;
70543;SDS011;58097;48.364;-1.224;2024-02-16T11:50:17;11.55;;;1.90;;
70543;SDS011;58097;48.364;-1.224;2024-02-16T11:52:43;11.85;;;2.00;;
70543;SDS011;58097;48.364;-1.224;2024-02-16T11:55:09;8.20;;;1.27;;
70543;SDS011;58097;48.364;-1.224;2024-02-16T11:57:36;5.43;;;1.33;;
70543;SDS011;58097;48.364;-1.224;2024-02-16T12:00:02;3.97;;;1.00;;
70543;SDS011;58097;48.364;-1.224;2024-02-16T12:02:33;22.08;;;2.38;;
70543;SDS011;58097;48.364;-1.224;2024-02-16T12:05:00;5.05;;;1.50;;
70543;SDS011;58097;48.364;-1.224;2024-02-16T12:07:26;4.82;;;0.90;;
70543;SDS011;58097;48.364;-1.224;2024-02-16T12:11:11;8.50;;;0.93;;
70543;SDS011;58097;48.364;-1.224;2024-02-16T12:13:37;9.13;;;1.00;;
70543;SDS011;58097;48.364;-1.224;2024-02-16T12:16:02;11.85;;;1.42;;
70543;SDS011;58097;48.364;-1.224;2024-02-16T12:18:28;9.90;;;1.60;;
70543;SDS011;58097;48.364;-1.224;2024-02-16T12:23:22;13.43;;;1.60;;
70543;SDS011;58097;48.364;-1.224;2024-02-16T12:25:47;8.55;;;1.10;;
70543;SDS011;58097;48.364;-1.224;2024-02-16T12:28:13;5.97;;;1.08;;
70543;SDS011;58097;48.364;-1.224;2024-02-16T12:30:38;7.50;;;1.40;;
70543;SDS011;58097;48.364;-1.224;2024-02-16T12:33:05;7.88;;;1.25;;
70543;SDS011;58097;48.364;-1.224;2024-02-16T12:35:30;6.82;;;0.95;;
70543;SDS011;58097;48.364;-1.224;2024-02-16T12:37:56;12.23;;;1.65;;
70543;SDS011;58097;48.364;-1.224;2024-02-16T12:40:21;12.43;;;1.77;;
70543;SDS011;58097;48.364;-1.224;2024-02-16T12:42:47;10.50;;;1.55;;
70543;SDS011;58097;48.364;-1.224;2024-02-16T12:45:13;9.65;;;1.17;;
70543;SDS011;58097;48.364;-1.224;2024-02-16T12:47:38;7.63;;;1.30;;
70543;SDS011;58097;48.364;-1.224;2024-02-16T12:50:04;7.40;;;1.80;;
70543;SDS011;58097;48.364;-1.224;2024-02-16T12:52:29;10.07;;;1.42;;
70543;SDS011;58097;48.364;-1.224;2024-02-16T12:54:56;10.95;;;1.65;;
70543;SDS011;58097;48.364;-1.224;2024-02-16T12:57:23;9.63;;;1.50;;
70543;SDS011;58097;48.364;-1.224;2024-02-16T12:59:49;14.20;;;2.58;;
70543;SDS011;58097;48.364;-1.224;2024-02-16T13:02:14;8.70;;;1.40;;
70543;SDS011;58097;48.364;-1.224;2024-02-16T13:04:39;6.53;;;1.38;;
70543;SDS011;58097;48.364;-1.224;2024-02-16T13:07:05;9.63;;;1.27;;
70543;SDS011;58097;48.364;-1.224;2024-02-16T13:09:30;7.10;;;1.13;;
70543;SDS011;58097;48.364;-1.224;2024-02-16T13:11:56;5.95;;;1.30;;
70543;SDS011;58097;48.364;-1.224;2024-02-16T13:14:21;12.90;;;1.50;;
70543;SDS011;58097;48.364;-1.224;2024-02-16T13:16:47;15.30;;;1.42;;
70543;SDS011;58097;48.364;-1.224;2024-02-16T13:19:13;5.75;;;1.00;;
70543;SDS011;58097;48.364;-1.224;2024-02-16T13:21:38;5.07;;;0.95;;
70543;SDS011;58097;48.364;-1.224;2024-02-16T13:24:04;6.93;;;1.10;;
70543;SDS011;58097;48.364;-1.224;2024-02-16T13:26:30;10.15;;;2.10;;
70543;SDS011;58097;48.364;-1.224;2024-02-16T13:28:56;10.65;;;1.30;;
70543;SDS011;58097;48.364;-1.224;2024-02-16T13:31:22;7.65;;;1.50;;
70543;SDS011;58097;48.364;-1.224;2024-02-16T13:33:48;4.05;;;1.10;;
70543;SDS011;58097;48.364;-1.224;2024-02-16T13:36:14;4.15;;;0.90;;
70543;SDS011;58097;48.364;-1.224;2024-02-16T13:38:39;6.70;;;0.93;;
70543;SDS011;58097;48.364;-1.224;2024-02-16T13:41:04;3.97;;;1.00;;
70543;SDS011;58097;48.364;-1.224;2024-02-16T13:43:30;8.55;;;1.10;;
70543;SDS011;58097;48.364;-1.224;2024-02-16T13:45:56;6.90;;;0.98;;
70543;SDS011;58097;48.364;-1.224;2024-02-16T13:48:23;6.60;;;0.90;;
70543;SDS011;58097;48.364;-1.224;2024-02-16T13:50:49;3.80;;;1.00;;
70543;SDS011;58097;48.364;-1.224;2024-02-16T13:53:15;4.80;;;0.90;;
70543;SDS011;58097;48.364;-1.224;2024-02-16T13:55:41;6.13;;;1.02;;
70543;SDS011;58097;48.364;-1.224;2024-02-16T13:58:09;4.03;;;0.80;;
70543;SDS011;58097;48.364;-1.224;2024-02-16T14:00:37;3.22;;;0.80;;
70543;SDS011;58097;48.364;-1.224;2024-02-16T14:03:04;7.90;;;0.93;;
70543;SDS011;58097;48.364;-1.224;2024-02-16T14:05:33;9.02;;;1.40;;
70543;SDS011;58097;48.364;-1.224;2024-02-16T14:08:00;5.22;;;1.08;;
70543;SDS011;58097;48.364;-1.224;2024-02-16T14:10:25;9.75;;;1.10;;
70543;SDS011;58097;48.364;-1.224;2024-02-16T14:12:51;10.85;;;1.50;;
70543;SDS011;58097;48.364;-1.224;2024-02-16T14:15:17;7.05;;;1.35;;
70543;SDS011;58097;48.364;-1.224;2024-02-16T14:17:44;6.97;;;1.45;;
70543;SDS011;58097;48.364;-1.224;2024-02-16T14:20:09;8.57;;;1.20;;
70543;SDS011;58097;48.364;-1.224;2024-02-16T14:22:35;8.15;;;1.10;;
70543;SDS011;58097;48.364;-1.224;2024-02-16T14:25:01;5.57;;;1.17;;